Impacts TAF Board INFO
FOR SITUATIONAL AWARENESS. NOT TO BE USED FOR FLIGHT PLANNING PURPOSES.
IDs:

KASD - Slidell Arpt, LA, US

Issued at 0958 UTC 23 Feb 2018
Updated at 1031 UTC 23 Feb 2018
Potential Impact None Slight Moderate High
Time<<23/23Z 24/00Z 24/01Z 24/02Z 24/03Z 24/04Z 24/05Z 24/06Z 24/07Z 24/08Z 24/09Z 24/10Z 24/11Z>>
Type PRVL PRVL PRVL PRVL PRVL PRVL PRVL
VIS >6 >6 >6 >6 >6 >6 >6
CIG 35 50 50 50 50 50 50
Cover OVC BKN BKN BKN BKN BKN BKN
FltCat VFR VFR VFR VFR VFR VFR VFR
WX -- -- -- -- -- -- --
WDir 130 130 130 130 130 130 130
WSpd 10 7 7 7 7 7 7
WGst -- -- -- -- -- -- --

Raw TAF
KASD 230958Z 2310/2406 00000KT 3/4SM BR VV002
  TEMPO 2310/2314 2SM BR
  FM231400 13005KT P6SM BKN020
  FM231800 13010KT P6SM SCT025 OVC035
  FM240000 13007KT P6SM SCT020 BKN050


METAR Board
Radar Display
Forecast Discussion

FOR SITUATIONAL AWARENESS. NOT TO BE USED FOR FLIGHT PLANNING PURPOSES.